Time;durP1;ratioP1;P1;durP2;ratioP2;P2;SDS_P1;SDS_P2;PMS_P1;PMS_P2;Temp;Humidity;BMP_temperature;BMP_pressure;BME280_temperature;BME280_humidity;BME280_pressure;Samples;Min_cycle;Max_cycle;Signal;HPM_P1;HPM_P2
2023/05/25 00:01:43;;;;;;;9.88;3.45;;;10.00;99.90;;;;;;5044699;28;20484;-63
2023/05/25 00:04:09;;;;;;;15.90;4.47;;;10.00;99.90;;;;;;5043604;28;20117;-64
2023/05/25 00:06:40;;;;;;;9.23;3.60;;;9.90;99.90;;;;;;5039458;28;20033;-63
2023/05/25 00:09:06;;;;;;;13.98;4.70;;;9.90;99.90;;;;;;5042122;28;20033;-64
2023/05/25 00:11:31;;;;;;;10.63;4.28;;;9.90;99.90;;;;;;5040514;28;20395;-64
2023/05/25 00:13:57;;;;;;;9.20;4.38;;;9.90;99.90;;;;;;5046148;28;20037;-64
2023/05/25 00:16:23;;;;;;;10.05;4.22;;;9.90;99.90;;;;;;5035805;28;20044;-63
2023/05/25 00:18:48;;;;;;;10.85;4.70;;;9.90;99.90;;;;;;5043024;28;20032;-64
2023/05/25 00:21:14;;;;;;;9.18;4.03;;;9.90;99.90;;;;;;5042460;28;20035;-63
2023/05/25 00:23:41;;;;;;;13.73;4.40;;;9.90;99.90;;;;;;5042538;28;20045;-63
2023/05/25 00:26:06;;;;;;;12.35;4.90;;;9.80;99.90;;;;;;5068617;22;20052;-76
2023/05/25 00:28:32;;;;;;;13.60;5.13;;;9.90;99.90;;;;;;5071388;28;20025;-76
2023/05/25 00:30:58;;;;;;;13.90;5.82;;;9.80;99.90;;;;;;5068364;28;20034;-76
2023/05/25 00:33:23;;;;;;;14.10;4.93;;;9.80;99.90;;;;;;5076424;28;20044;-77
2023/05/25 00:35:49;;;;;;;14.07;4.70;;;9.90;99.90;;;;;;5069116;28;20036;-76
2023/05/25 00:38:17;;;;;;;11.73;4.78;;;9.90;99.90;;;;;;5048840;28;20456;-76
2023/05/25 00:40:43;;;;;;;11.40;5.10;;;9.90;99.90;;;;;;5036999;28;20403;-77
2023/05/25 00:43:09;;;;;;;11.73;4.57;;;9.80;99.90;;;;;;5059703;28;20389;-76
2023/05/25 00:45:35;;;;;;;10.55;4.55;;;9.80;99.90;;;;;;5048507;28;20040;-76
2023/05/25 00:48:02;;;;;;;12.30;5.22;;;9.80;99.90;;;;;;5055328;28;20036;-76
2023/05/25 00:50:51;;;;;;;10.57;5.03;;;9.80;99.90;;;;;;5039598;28;20040;-76
2023/05/25 00:53:16;;;;;;;12.55;4.60;;;9.80;99.90;;;;;;5055082;28;20047;-76
2023/05/25 00:55:57;;;;;;;12.57;5.15;;;9.80;99.90;;;;;;5050684;28;20040;-76
2023/05/25 00:58:26;;;;;;;16.63;5.18;;;9.80;99.90;;;;;;5032228;28;20037;-76
2023/05/25 01:00:56;;;;;;;13.75;5.20;;;9.80;99.90;;;;;;5054893;28;20048;-76
2023/05/25 01:03:27;;;;;;;11.18;5.00;;;9.80;99.90;;;;;;5055422;28;20041;-76
2023/05/25 01:05:54;;;;;;;11.02;5.38;;;9.70;99.90;;;;;;5047637;28;20029;-76
2023/05/25 01:08:23;;;;;;;13.40;5.57;;;9.70;99.90;;;;;;5055754;28;20037;-76
2023/05/25 01:10:50;;;;;;;15.35;5.65;;;9.70;99.90;;;;;;5051446;28;20039;-76
2023/05/25 01:13:18;;;;;;;12.40;5.50;;;9.70;99.90;;;;;;5049427;28;20133;-76
2023/05/25 01:15:45;;;;;;;9.90;5.43;;;9.70;99.90;;;;;;5050424;28;20044;-76
2023/05/25 01:18:13;;;;;;;9.65;5.07;;;9.70;99.90;;;;;;5055830;28;20468;-76
2023/05/25 01:20:52;;;;;;;11.88;5.20;;;9.60;99.90;;;;;;5045138;28;20040;-76
2023/05/25 01:23:20;;;;;;;9.63;4.43;;;9.60;99.90;;;;;;5027371;28;20477;-76
2023/05/25 01:25:52;;;;;;;9.68;4.88;;;9.60;99.90;;;;;;5052843;28;20032;-77
2023/05/25 01:28:25;;;;;;;7.22;4.07;;;9.50;99.90;;;;;;5053634;28;20119;-77
2023/05/25 01:30:52;;;;;;;13.18;4.50;;;9.40;99.90;;;;;;5057502;28;20060;-77
2023/05/25 01:33:18;;;;;;;7.63;4.50;;;9.40;99.90;;;;;;5055479;28;20119;-77
2023/05/25 01:35:45;;;;;;;9.93;4.43;;;9.40;99.90;;;;;;5052121;28;20037;-77
2023/05/25 01:38:11;;;;;;;9.52;4.78;;;9.30;99.90;;;;;;5038841;28;20032;-76
2023/05/25 01:40:37;;;;;;;10.93;4.50;;;9.30;99.90;;;;;;5054857;28;20389;-77
2023/05/25 01:43:03;;;;;;;8.70;4.03;;;9.20;99.90;;;;;;5028609;28;20046;-77
2023/05/25 01:45:31;;;;;;;14.48;4.80;;;9.20;99.90;;;;;;5046714;28;20099;-77
2023/05/25 01:48:12;;;;;;;10.43;4.50;;;9.10;99.90;;;;;;5053775;28;20472;-77
2023/05/25 01:50:50;;;;;;;10.63;4.85;;;9.10;99.90;;;;;;5048928;28;20036;-77
2023/05/25 01:53:21;;;;;;;13.52;5.22;;;9.10;99.90;;;;;;5051327;28;20048;-77
2023/05/25 01:55:57;;;;;;;13.15;5.78;;;9.10;99.90;;;;;;5051212;28;20037;-76
2023/05/25 01:58:25;;;;;;;10.23;5.28;;;9.10;99.90;;;;;;5048361;28;20048;-78
2023/05/25 02:00:52;;;;;;;9.20;4.80;;;9.00;99.90;;;;;;5052777;28;20122;-77
2023/05/25 02:03:19;;;;;;;12.05;5.47;;;9.00;99.90;;;;;;5053829;28;20539;-77
2023/05/25 02:05:45;;;;;;;9.05;4.88;;;9.00;99.90;;;;;;5046561;28;20101;-77
2023/05/25 02:08:11;;;;;;;12.55;5.43;;;9.00;99.90;;;;;;5039202;28;20531;-77
2023/05/25 02:10:37;;;;;;;15.10;5.50;;;9.00;99.90;;;;;;5055205;28;20039;-77
2023/05/25 02:13:02;;;;;;;12.15;5.10;;;9.00;99.90;;;;;;5053968;28;20044;-77
2023/05/25 02:15:31;;;;;;;11.45;5.20;;;9.00;99.90;;;;;;5045566;28;20037;-77
2023/05/25 02:17:58;;;;;;;13.85;5.55;;;9.00;99.90;;;;;;5056412;28;20503;-77
2023/05/25 02:20:25;;;;;;;14.10;5.85;;;9.00;99.90;;;;;;5047546;28;20447;-77
2023/05/25 02:22:50;;;;;;;12.30;5.90;;;9.00;99.90;;;;;;5049519;28;20442;-77
2023/05/25 02:25:16;;;;;;;17.05;6.53;;;9.00;99.90;;;;;;5066504;28;20090;-77
2023/05/25 02:27:42;;;;;;;11.70;6.05;;;9.00;99.90;;;;;;5049823;28;20083;-77
2023/05/25 02:30:08;;;;;;;16.63;6.07;;;9.00;99.90;;;;;;5068772;28;20032;-77
2023/05/25 02:32:34;;;;;;;12.90;6.15;;;9.10;99.90;;;;;;5055024;28;20029;-76
2023/05/25 02:35:00;;;;;;;14.15;6.15;;;9.10;99.90;;;;;;5040089;28;20447;-77
2023/05/25 02:37:26;;;;;;;12.93;6.13;;;9.10;99.90;;;;;;5053594;28;20269;-77
2023/05/25 02:39:51;;;;;;;13.18;6.72;;;9.10;99.90;;;;;;5052104;28;20417;-76
2023/05/25 02:42:17;;;;;;;13.85;6.15;;;9.10;99.90;;;;;;5049144;28;20507;-76
2023/05/25 02:44:47;;;;;;;14.68;6.13;;;9.00;99.90;;;;;;5054125;28;20040;-77
2023/05/25 02:47:17;;;;;;;14.40;6.15;;;9.00;99.90;;;;;;5037101;28;20222;-76
2023/05/25 02:49:44;;;;;;;14.70;6.32;;;9.00;99.90;;;;;;5051059;28;20028;-77
2023/05/25 02:52:10;;;;;;;14.07;5.80;;;9.00;99.90;;;;;;5051105;28;20074;-76
2023/05/25 02:54:35;;;;;;;11.68;5.40;;;8.90;99.90;;;;;;5029358;28;20437;-76
2023/05/25 02:57:02;;;;;;;13.85;5.38;;;8.90;99.90;;;;;;5066814;28;20045;-76
2023/05/25 02:59:28;;;;;;;11.75;5.53;;;8.90;99.90;;;;;;5042714;28;20112;-77
2023/05/25 03:01:54;;;;;;;12.55;5.75;;;8.90;99.90;;;;;;5047262;28;20124;-77
2023/05/25 03:04:20;;;;;;;12.82;6.13;;;8.80;99.90;;;;;;5043167;28;20481;-76
2023/05/25 03:06:46;;;;;;;11.65;5.70;;;8.80;99.90;;;;;;5033191;28;20064;-77
2023/05/25 03:09:12;;;;;;;10.02;5.65;;;8.80;99.90;;;;;;5053996;28;20086;-76
2023/05/25 03:11:38;;;;;;;11.93;5.50;;;8.80;99.90;;;;;;5031064;28;20045;-76
2023/05/25 03:14:03;;;;;;;12.02;5.78;;;8.70;99.90;;;;;;5061020;28;20039;-77
2023/05/25 03:16:29;;;;;;;11.02;5.40;;;8.70;99.90;;;;;;5053266;28;20037;-76
2023/05/25 03:18:54;;;;;;;11.25;5.25;;;8.70;99.90;;;;;;5052041;28;20047;-76
2023/05/25 03:21:23;;;;;;;13.13;5.82;;;8.60;99.90;;;;;;5052146;28;20095;-77
2023/05/25 03:23:48;;;;;;;12.75;5.13;;;8.70;99.90;;;;;;5050028;28;20449;-76
2023/05/25 03:26:14;;;;;;;12.18;5.63;;;8.60;99.90;;;;;;5050716;28;20052;-76
2023/05/25 03:28:40;;;;;;;11.07;5.15;;;8.60;99.90;;;;;;5052911;28;20480;-76
2023/05/25 03:31:06;;;;;;;11.63;5.78;;;8.60;99.90;;;;;;5051833;28;20112;-77
2023/05/25 03:33:32;;;;;;;12.85;5.50;;;8.60;99.90;;;;;;5044486;28;20048;-77
2023/05/25 03:35:58;;;;;;;14.70;5.78;;;8.60;99.90;;;;;;5044053;28;20090;-76
2023/05/25 03:38:23;;;;;;;14.88;5.38;;;8.60;99.90;;;;;;5051015;28;20040;-77
2023/05/25 03:40:49;;;;;;;12.90;6.25;;;8.60;99.90;;;;;;5051608;28;20058;-76
2023/05/25 03:43:15;;;;;;;15.70;6.28;;;8.60;99.90;;;;;;5035204;28;20040;-76
2023/05/25 03:45:40;;;;;;;15.52;7.35;;;8.70;99.90;;;;;;5035678;28;20033;-76
2023/05/25 03:48:06;;;;;;;14.77;5.97;;;8.70;99.90;;;;;;5050836;28;20416;-76
2023/05/25 03:50:33;;;;;;;15.57;6.38;;;8.70;99.90;;;;;;5049754;28;20082;-76
2023/05/25 03:52:58;;;;;;;13.23;6.45;;;8.70;99.90;;;;;;5044692;28;20049;-76
2023/05/25 03:55:24;;;;;;;13.38;6.38;;;8.70;99.90;;;;;;5047024;28;20045;-76
2023/05/25 03:57:49;;;;;;;13.18;6.68;;;8.70;99.90;;;;;;5046664;28;20062;-77
2023/05/25 04:00:15;;;;;;;13.80;6.47;;;8.70;99.90;;;;;;5052803;28;20373;-76
2023/05/25 04:02:41;;;;;;;17.05;6.60;;;8.80;99.90;;;;;;5052181;28;20381;-77
2023/05/25 04:05:07;;;;;;;17.17;6.88;;;8.80;99.90;;;;;;5049143;28;20044;-77
2023/05/25 04:07:33;;;;;;;12.63;5.90;;;8.80;99.90;;;;;;5029716;28;20039;-77
2023/05/25 04:10:01;;;;;;;15.40;6.40;;;8.80;99.90;;;;;;5050906;28;20465;-77
2023/05/25 04:12:27;;;;;;;15.65;6.30;;;8.80;99.90;;;;;;5048267;28;20044;-77
2023/05/25 04:14:53;;;;;;;15.27;6.55;;;8.80;99.90;;;;;;5052029;28;20038;-77
2023/05/25 04:17:21;;;;;;;13.25;6.10;;;8.80;99.90;;;;;;5047698;28;20037;-78
2023/05/25 04:19:46;;;;;;;15.30;6.72;;;8.70;99.90;;;;;;5046825;28;20036;-77
2023/05/25 04:22:12;;;;;;;15.63;6.50;;;8.80;99.90;;;;;;5062620;28;20040;-78
2023/05/25 04:24:37;;;;;;;13.23;6.45;;;8.80;99.90;;;;;;5037215;28;20064;-78
2023/05/25 04:27:04;;;;;;;14.80;6.45;;;8.80;99.90;;;;;;5019090;28;20078;-77
2023/05/25 04:29:30;;;;;;;12.90;6.50;;;8.80;99.90;;;;;;5047828;28;20040;-77
2023/05/25 04:31:56;;;;;;;12.30;6.55;;;8.80;99.90;;;;;;5042156;28;20044;-77
2023/05/25 04:34:22;;;;;;;16.23;7.40;;;8.80;99.90;;;;;;5038586;28;20040;-77
2023/05/25 04:36:48;;;;;;;13.48;6.82;;;8.90;99.90;;;;;;5047371;28;20035;-76
2023/05/25 04:39:14;;;;;;;16.45;6.88;;;8.90;99.90;;;;;;5041606;28;20116;-77
2023/05/25 04:41:41;;;;;;;17.75;6.78;;;8.90;99.90;;;;;;5049187;28;20040;-76
2023/05/25 04:44:07;;;;;;;16.88;7.65;;;9.00;99.90;;;;;;5044444;28;20506;-77
2023/05/25 04:46:36;;;;;;;19.85;8.15;;;9.00;99.90;;;;;;5050652;28;20036;-76
2023/05/25 04:49:04;;;;;;;17.52;7.65;;;9.10;99.90;;;;;;5052350;28;20053;-77
2023/05/25 04:51:29;;;;;;;15.90;7.68;;;9.10;99.90;;;;;;5057363;28;20071;-77
2023/05/25 04:53:55;;;;;;;18.05;7.85;;;9.20;99.90;;;;;;5051278;28;20083;-76
2023/05/25 04:56:24;;;;;;;18.00;8.00;;;9.30;99.90;;;;;;5051454;28;20033;-78
2023/05/25 04:58:50;;;;;;;20.13;8.00;;;9.30;99.90;;;;;;5031880;28;20044;-78
2023/05/25 05:01:16;;;;;;;15.65;8.18;;;9.30;99.90;;;;;;5034165;28;20072;-77
2023/05/25 05:03:42;;;;;;;19.77;8.25;;;9.40;99.90;;;;;;5043465;28;20116;-77
2023/05/25 05:06:09;;;;;;;18.80;9.35;;;9.30;99.90;;;;;;5066784;28;20033;-77
2023/05/25 05:08:35;;;;;;;19.42;7.93;;;9.50;99.90;;;;;;5066614;28;20068;-78
2023/05/25 05:11:00;;;;;;;19.77;7.80;;;9.50;99.90;;;;;;5042654;28;20118;-77
2023/05/25 05:13:26;;;;;;;19.27;8.05;;;9.50;99.90;;;;;;5048996;28;20047;-77
2023/05/25 05:15:52;;;;;;;24.05;8.65;;;9.60;99.90;;;;;;5051578;28;20120;-77
2023/05/25 05:18:18;;;;;;;21.40;8.52;;;9.60;99.90;;;;;;5059605;28;20115;-76
2023/05/25 05:20:45;;;;;;;22.75;8.57;;;9.70;99.90;;;;;;5056426;28;20132;-77
2023/05/25 05:23:10;;;;;;;22.08;8.55;;;9.70;99.90;;;;;;5040029;28;20067;-77
2023/05/25 05:25:36;;;;;;;21.13;9.07;;;9.70;99.90;;;;;;5060447;28;20044;-77
2023/05/25 05:28:03;;;;;;;16.55;8.68;;;9.70;99.90;;;;;;5064786;28;20039;-77
2023/05/25 05:30:29;;;;;;;17.73;8.27;;;9.80;99.90;;;;;;5051111;28;20042;-77
2023/05/25 05:32:54;;;;;;;17.63;7.93;;;9.80;99.90;;;;;;5057231;28;20048;-77
2023/05/25 05:35:20;;;;;;;17.55;8.68;;;9.80;99.90;;;;;;5057507;28;20427;-77
2023/05/25 05:37:47;;;;;;;18.73;8.52;;;9.90;99.90;;;;;;5050281;28;20040;-77
2023/05/25 05:40:13;;;;;;;17.63;8.55;;;9.90;99.90;;;;;;5042550;28;20492;-77
2023/05/25 05:42:38;;;;;;;17.67;8.63;;;10.00;99.90;;;;;;5054028;28;20035;-77
2023/05/25 05:45:04;;;;;;;16.95;8.35;;;10.00;99.90;;;;;;5055523;28;20032;-77
2023/05/25 05:47:30;;;;;;;18.90;8.65;;;10.10;99.90;;;;;;5053066;28;20041;-77
2023/05/25 05:50:03;;;;;;;19.33;9.27;;;10.10;99.90;;;;;;5040863;28;20410;-77
2023/05/25 05:52:29;;;;;;;21.00;8.55;;;10.20;99.90;;;;;;5055315;28;20040;-77
2023/05/25 05:54:55;;;;;;;22.42;9.23;;;10.20;99.90;;;;;;5057727;28;20048;-77
2023/05/25 05:57:20;;;;;;;18.85;9.43;;;10.30;99.90;;;;;;5062050;28;20032;-77
2023/05/25 05:59:46;;;;;;;21.50;9.50;;;10.30;99.90;;;;;;5062642;28;20041;-77
2023/05/25 06:02:12;;;;;;;21.88;9.98;;;10.40;99.90;;;;;;5066371;28;20045;-76
2023/05/25 06:04:37;;;;;;;23.98;9.88;;;10.50;99.90;;;;;;5063347;28;20067;-77
2023/05/25 06:07:03;;;;;;;22.60;10.23;;;10.50;99.90;;;;;;5058737;28;20037;-77
2023/05/25 06:09:28;;;;;;;21.50;10.27;;;10.60;99.90;;;;;;5058677;28;20033;-77
2023/05/25 06:11:54;;;;;;;19.95;9.30;;;10.70;99.90;;;;;;5042414;28;20488;-76
2023/05/25 06:14:19;;;;;;;20.88;10.00;;;10.70;99.90;;;;;;5048204;28;20048;-77
2023/05/25 06:16:45;;;;;;;23.23;10.05;;;10.80;99.90;;;;;;5058319;28;20040;-77
2023/05/25 06:19:11;;;;;;;22.30;10.77;;;10.80;99.90;;;;;;5041334;28;20132;-77
2023/05/25 06:21:36;;;;;;;27.27;11.05;;;10.90;99.90;;;;;;5041707;28;20064;-77
2023/05/25 06:24:03;;;;;;;20.10;9.98;;;11.00;99.90;;;;;;5056623;28;20036;-77
2023/05/25 06:26:28;;;;;;;21.35;10.68;;;11.00;99.90;;;;;;5069301;22;20108;-63
2023/05/25 06:28:55;;;;;;;21.33;10.30;;;11.00;99.90;;;;;;5028236;28;20136;-62
2023/05/25 06:31:20;;;;;;;27.70;10.30;;;11.10;99.90;;;;;;5019911;28;20120;-62
2023/05/25 06:33:46;;;;;;;20.30;10.60;;;11.20;99.90;;;;;;5047888;28;20577;-62
2023/05/25 06:36:13;;;;;;;19.05;9.65;;;11.20;99.90;;;;;;5020809;28;20406;-62
2023/05/25 06:38:39;;;;;;;19.67;9.57;;;11.30;99.90;;;;;;5046889;28;20087;-62
2023/05/25 06:41:06;;;;;;;18.77;8.43;;;11.30;99.90;;;;;;5030091;28;20442;-62
2023/05/25 06:43:32;;;;;;;21.00;8.27;;;11.40;99.90;;;;;;5007493;28;20099;-62
2023/05/25 06:45:58;;;;;;;19.98;7.93;;;11.40;99.90;;;;;;5044901;28;20426;-62
2023/05/25 06:48:23;;;;;;;23.08;9.43;;;11.50;99.90;;;;;;5030381;28;20044;-62
2023/05/25 06:50:49;;;;;;;20.77;9.05;;;11.50;99.90;;;;;;5011986;28;20049;-62
2023/05/25 06:53:16;;;;;;;16.00;7.88;;;11.60;99.90;;;;;;5013279;28;20491;-63
2023/05/25 06:55:42;;;;;;;17.92;7.70;;;11.70;99.90;;;;;;5030360;28;20033;-63
2023/05/25 06:58:07;;;;;;;18.98;7.03;;;11.70;99.90;;;;;;5034697;28;20029;-63
2023/05/25 07:00:33;;;;;;;18.75;7.10;;;11.90;99.90;;;;;;5039683;28;20414;-63
2023/05/25 07:02:58;;;;;;;16.95;6.43;;;11.90;99.90;;;;;;5012902;28;20124;-63
2023/05/25 07:05:24;;;;;;;18.98;6.10;;;12.00;99.90;;;;;;5030959;28;20044;-63
2023/05/25 07:07:50;;;;;;;14.00;5.43;;;12.10;99.90;;;;;;5030313;28;20061;-63
2023/05/25 07:10:16;;;;;;;12.10;4.90;;;12.20;99.90;;;;;;5037531;28;20091;-63
2023/05/25 07:12:41;;;;;;;11.80;4.80;;;12.20;99.90;;;;;;5025216;28;20053;-63
2023/05/25 07:15:08;;;;;;;12.35;4.93;;;12.30;99.90;;;;;;5035501;28;20449;-63
2023/05/25 07:17:35;;;;;;;11.40;4.65;;;12.30;99.90;;;;;;5030662;28;20044;-63
2023/05/25 07:20:04;;;;;;;15.75;5.20;;;12.50;99.90;;;;;;5008642;28;20132;-63
2023/05/25 07:22:30;;;;;;;14.18;5.00;;;12.50;99.90;;;;;;5018354;28;20045;-63
2023/05/25 07:24:56;;;;;;;14.57;5.13;;;12.60;99.90;;;;;;4995240;28;20129;-63
2023/05/25 07:27:21;;;;;;;15.35;4.68;;;12.80;99.90;;;;;;5020745;28;20399;-63
2023/05/25 07:29:47;;;;;;;16.90;4.55;;;12.90;99.90;;;;;;5008904;28;20051;-63
2023/05/25 07:32:12;;;;;;;13.90;4.57;;;13.00;99.90;;;;;;5032667;28;20548;-63
2023/05/25 07:34:38;;;;;;;13.77;5.40;;;13.00;99.90;;;;;;5033320;28;20062;-63
2023/05/25 07:37:04;;;;;;;14.25;4.30;;;13.10;99.90;;;;;;5025057;28;20029;-63
2023/05/25 07:39:29;;;;;;;15.23;4.78;;;13.20;99.90;;;;;;5028769;28;20029;-63
2023/05/25 07:41:55;;;;;;;15.52;4.53;;;13.30;99.90;;;;;;5016677;28;20049;-62
2023/05/25 07:44:20;;;;;;;13.07;4.95;;;13.30;99.90;;;;;;5031292;28;20537;-63
2023/05/25 07:46:46;;;;;;;12.40;4.63;;;13.40;99.90;;;;;;5031164;28;20062;-63
2023/05/25 07:49:14;;;;;;;11.90;4.45;;;13.50;99.90;;;;;;5031958;28;20040;-63
2023/05/25 07:51:42;;;;;;;13.77;4.13;;;13.60;99.90;;;;;;5009139;28;20099;-63
2023/05/25 07:54:07;;;;;;;14.70;4.40;;;13.70;99.90;;;;;;5022556;28;20476;-63
2023/05/25 07:56:33;;;;;;;17.00;4.88;;;13.90;99.90;;;;;;5024578;28;20065;-63
2023/05/25 07:58:59;;;;;;;17.70;4.70;;;13.90;99.90;;;;;;5025407;28;20038;-63
2023/05/25 08:01:25;;;;;;;14.85;4.80;;;13.90;99.90;;;;;;5032373;28;20389;-63
2023/05/25 08:03:51;;;;;;;16.90;4.18;;;13.90;99.90;;;;;;5028689;28;20059;-62
2023/05/25 08:06:17;;;;;;;13.43;4.15;;;14.00;99.90;;;;;;5024383;28;20076;-63
2023/05/25 08:08:45;;;;;;;13.80;3.85;;;14.10;99.90;;;;;;5009919;28;20037;-63
2023/05/25 08:11:11;;;;;;;16.70;4.00;;;14.20;99.90;;;;;;5032244;28;20049;-63
2023/05/25 08:13:37;;;;;;;14.80;4.95;;;14.30;99.90;;;;;;5022286;28;20120;-65
2023/05/25 08:16:03;;;;;;;17.50;4.05;;;14.30;99.90;;;;;;5018606;28;20127;-63
2023/05/25 08:18:30;;;;;;;14.75;4.15;;;14.40;99.90;;;;;;5028373;28;20595;-62
2023/05/25 08:20:56;;;;;;;12.60;4.10;;;14.40;99.90;;;;;;5012613;28;20545;-63
2023/05/25 08:23:21;;;;;;;16.17;4.47;;;14.40;99.90;;;;;;5009701;28;20080;-62
2023/05/25 08:25:47;;;;;;;12.98;4.30;;;14.40;99.90;;;;;;5036586;28;20064;-62
2023/05/25 08:28:13;;;;;;;10.82;3.75;;;14.50;99.90;;;;;;5031271;28;20044;-62
2023/05/25 08:30:38;;;;;;;14.60;4.28;;;14.60;99.90;;;;;;5017319;28;20033;-62
2023/05/25 08:33:05;;;;;;;15.60;4.18;;;14.70;99.90;;;;;;5006428;28;20077;-62
2023/05/25 08:35:31;;;;;;;12.65;3.83;;;14.90;99.90;;;;;;5011227;28;20037;-62
2023/05/25 08:37:57;;;;;;;12.20;3.95;;;15.00;99.90;;;;;;5017173;28;20135;-62
2023/05/25 08:40:27;;;;;;;13.02;3.47;;;15.30;99.90;;;;;;5003340;28;20128;-62
2023/05/25 08:42:52;;;;;;;13.10;4.40;;;15.50;99.90;;;;;;5026705;28;20033;-62
2023/05/25 08:45:18;;;;;;;13.50;3.78;;;15.60;99.90;;;;;;5007838;28;20484;-63
2023/05/25 08:47:46;;;;;;;16.40;3.75;;;15.60;99.90;;;;;;5013610;28;20034;-62
2023/05/25 08:50:12;;;;;;;12.52;3.78;;;15.70;99.90;;;;;;5027650;28;20475;-62
2023/05/25 08:52:42;;;;;;;14.10;3.58;;;15.70;99.90;;;;;;5008008;28;20096;-63
2023/05/25 08:55:09;;;;;;;17.23;4.47;;;15.80;99.90;;;;;;5020762;28;20091;-62
2023/05/25 08:57:53;;;;;;;11.15;3.38;;;15.80;99.90;;;;;;5037557;28;20044;-62
2023/05/25 09:00:24;;;;;;;12.10;3.65;;;15.70;99.90;;;;;;5026593;28;20491;-63
2023/05/25 09:03:06;;;;;;;16.48;3.90;;;15.60;99.90;;;;;;5007960;28;20041;-62
2023/05/25 09:05:35;;;;;;;11.60;3.83;;;15.60;99.90;;;;;;5032952;28;20088;-63
2023/05/25 09:08:09;;;;;;;14.57;4.25;;;15.50;99.90;;;;;;5025955;28;20033;-62
2023/05/25 09:10:35;;;;;;;16.83;3.70;;;15.40;99.90;;;;;;5026873;28;20030;-62
2023/05/25 09:13:01;;;;;;;19.15;3.90;;;15.40;99.90;;;;;;5030205;28;20073;-63
2023/05/25 09:15:27;;;;;;;10.40;3.63;;;15.30;99.90;;;;;;5016488;28;20084;-62
2023/05/25 09:17:52;;;;;;;13.13;4.55;;;15.20;99.90;;;;;;5037346;28;20110;-62
2023/05/25 09:20:19;;;;;;;14.80;3.63;;;15.20;99.90;;;;;;5031397;28;20116;-62
2023/05/25 09:22:46;;;;;;;13.52;3.97;;;15.10;99.90;;;;;;5018189;28;20053;-62
2023/05/25 09:25:16;;;;;;;14.20;4.05;;;15.10;99.90;;;;;;5030264;28;20046;-63
2023/05/25 09:27:42;;;;;;;17.80;3.97;;;15.00;99.90;;;;;;5025863;28;20060;-62
2023/05/25 09:30:08;;;;;;;11.10;3.95;;;14.90;99.90;;;;;;5013495;28;20037;-62
2023/05/25 09:32:34;;;;;;;12.93;3.75;;;15.00;99.90;;;;;;5040325;28;20037;-62
2023/05/25 09:35:13;;;;;;;17.92;4.65;;;14.90;99.90;;;;;;5022542;28;20496;-62
2023/05/25 09:37:40;;;;;;;13.50;4.35;;;15.00;99.90;;;;;;5038630;28;20044;-62
2023/05/25 09:40:07;;;;;;;16.17;4.28;;;14.90;99.90;;;;;;5030352;28;20041;-62
2023/05/25 09:42:34;;;;;;;20.40;4.43;;;15.00;99.90;;;;;;5036770;28;20377;-62
2023/05/25 09:45:00;;;;;;;12.80;4.15;;;15.00;99.90;;;;;;5027018;28;20076;-62
2023/05/25 09:47:26;;;;;;;16.42;4.40;;;15.00;99.90;;;;;;5014845;28;20037;-62
2023/05/25 09:49:53;;;;;;;13.98;4.85;;;15.00;99.90;;;;;;5033256;28;20033;-63
2023/05/25 09:52:19;;;;;;;18.83;4.25;;;15.00;99.90;;;;;;5032470;28;20030;-62
2023/05/25 09:54:47;;;;;;;15.77;5.00;;;14.90;99.90;;;;;;5024058;28;20037;-63
2023/05/25 09:57:13;;;;;;;12.90;4.05;;;14.80;99.90;;;;;;5033067;28;20396;-62
2023/05/25 09:59:38;;;;;;;18.98;4.18;;;14.80;99.90;;;;;;5032223;28;20029;-62
2023/05/25 10:02:05;;;;;;;18.00;4.95;;;14.80;99.90;;;;;;5043439;28;20044;-62
2023/05/25 10:04:31;;;;;;;22.55;5.07;;;14.90;99.90;;;;;;5018283;28;20045;-62
2023/05/25 10:06:58;;;;;;;16.83;4.68;;;15.00;99.90;;;;;;5034185;28;20395;-62
2023/05/25 10:09:27;;;;;;;19.83;4.60;;;15.20;99.90;;;;;;5027925;28;20041;-62
2023/05/25 10:11:55;;;;;;;21.25;4.65;;;15.50;99.90;;;;;;5016420;28;20391;-62
2023/05/25 10:14:28;;;;;;;17.77;4.88;;;15.70;99.90;;;;;;5012866;28;20037;-63
2023/05/25 10:16:56;;;;;;;16.80;4.43;;;15.80;99.90;;;;;;5033613;28;20033;-62
2023/05/25 10:19:30;;;;;;;19.92;4.78;;;15.80;99.90;;;;;;5032084;28;20514;-62
2023/05/25 10:22:20;;;;;;;18.83;4.28;;;16.00;99.90;;;;;;5015091;28;20045;-62
2023/05/25 10:24:55;;;;;;;21.55;4.60;;;16.10;99.90;;;;;;5014067;28;20049;-62
2023/05/25 10:27:23;;;;;;;17.23;3.97;;;16.40;99.90;;;;;;5024278;28;20048;-62
2023/05/25 10:29:50;;;;;;;17.80;3.97;;;17.00;99.90;;;;;;5032360;28;20030;-63
2023/05/25 10:32:17;;;;;;;17.30;4.10;;;17.30;99.90;;;;;;5019859;28;20120;-62
2023/05/25 10:34:43;;;;;;;15.40;4.10;;;17.50;99.90;;;;;;5018447;28;20494;-62
2023/05/25 10:37:10;;;;;;;18.92;4.65;;;17.80;99.90;;;;;;5006384;28;20095;-62
2023/05/25 10:39:37;;;;;;;19.63;4.75;;;18.10;99.90;;;;;;5031388;28;20037;-63
2023/05/25 10:42:04;;;;;;;19.45;4.95;;;18.30;99.90;;;;;;5036281;28;20079;-62
2023/05/25 10:44:30;;;;;;;16.45;4.45;;;18.30;99.90;;;;;;5036849;28;20036;-63
2023/05/25 10:46:59;;;;;;;16.17;4.30;;;18.00;99.90;;;;;;5048468;28;20040;-63
2023/05/25 10:49:34;;;;;;;15.90;4.35;;;17.90;99.90;;;;;;5040066;28;20112;-62
2023/05/25 10:52:02;;;;;;;16.00;4.40;;;18.10;99.90;;;;;;5050208;28;20116;-63
2023/05/25 10:54:35;;;;;;;17.73;4.05;;;18.40;99.90;;;;;;5031721;28;20087;-62
2023/05/25 10:57:19;;;;;;;17.50;4.57;;;18.80;99.90;;;;;;5019803;28;20152;-63
2023/05/25 10:59:54;;;;;;;16.92;4.65;;;19.10;99.90;;;;;;5018642;28;20159;-63
2023/05/25 11:02:23;;;;;;;22.00;4.82;;;19.30;99.90;;;;;;5018243;28;20295;-62
2023/05/25 11:04:49;;;;;;;17.67;4.63;;;19.50;99.90;;;;;;5031531;28;20503;-63
2023/05/25 11:07:17;;;;;;;17.08;4.40;;;19.50;99.90;;;;;;5034958;28;20044;-63
2023/05/25 11:09:55;;;;;;;16.80;4.55;;;19.40;99.90;;;;;;5029864;28;20037;-63
2023/05/25 11:12:21;;;;;;;20.33;5.00;;;19.30;99.90;;;;;;5021079;28;20109;-62
2023/05/25 11:15:14;;;;;;;20.85;4.90;;;19.40;99.90;;;;;;5019203;28;20042;-63
2023/05/25 11:17:57;;;;;;;14.50;4.55;;;19.60;98.90;;;;;;5015954;28;20042;-63
2023/05/25 11:20:26;;;;;;;13.65;3.90;;;19.40;97.30;;;;;;5017871;28;20415;-63
2023/05/25 11:22:52;;;;;;;18.33;4.35;;;19.20;98.90;;;;;;5024957;28;20446;-63
2023/05/25 11:25:47;;;;;;;17.08;4.10;;;19.00;99.20;;;;;;5032830;28;20029;-62
2023/05/25 11:28:12;;;;;;;14.82;3.90;;;19.30;98.10;;;;;;5014152;28;20045;-63
2023/05/25 11:30:41;;;;;;;14.68;4.22;;;19.40;99.30;;;;;;5019478;28;20496;-63
2023/05/25 11:33:07;;;;;;;17.48;4.70;;;19.40;98.90;;;;;;5038230;28;20049;-62
2023/05/25 11:35:35;;;;;;;15.93;4.45;;;19.70;98.70;;;;;;5008537;28;20042;-63
2023/05/25 11:38:05;;;;;;;14.43;4.47;;;19.90;98.30;;;;;;5039766;28;20128;-63
2023/05/25 11:40:31;;;;;;;13.38;3.97;;;20.20;97.90;;;;;;5034178;28;20593;-63
2023/05/25 11:42:59;;;;;;;19.55;4.88;;;20.20;97.40;;;;;;5002498;28;20049;-63
2023/05/25 11:45:29;;;;;;;21.33;5.45;;;20.20;97.20;;;;;;5017927;28;20396;-63
2023/05/25 11:47:55;;;;;;;13.38;4.63;;;20.00;96.90;;;;;;5037725;28;20048;-63
2023/05/25 11:50:21;;;;;;;15.48;4.50;;;20.00;96.90;;;;;;5032245;28;20033;-63
2023/05/25 11:52:47;;;;;;;14.55;3.90;;;20.10;96.60;;;;;;5028221;28;20048;-63
2023/05/25 11:55:13;;;;;;;15.48;4.55;;;20.20;96.20;;;;;;5030871;28;20050;-63
2023/05/25 11:57:39;;;;;;;20.20;4.65;;;20.20;96.00;;;;;;4996220;28;20117;-63
2023/05/25 12:00:06;;;;;;;14.38;4.40;;;20.30;95.70;;;;;;5029255;28;20111;-63
2023/05/25 12:02:43;;;;;;;16.20;4.82;;;20.40;95.40;;;;;;5035705;28;20425;-63
2023/05/25 12:05:10;;;;;;;15.20;4.53;;;20.50;94.80;;;;;;5007044;28;20034;-61
2023/05/25 12:07:42;;;;;;;14.40;4.65;;;20.60;95.10;;;;;;5017671;28;20064;-65
2023/05/25 12:10:15;;;;;;;16.98;4.40;;;20.70;94.60;;;;;;5035308;28;20440;-63
2023/05/25 12:12:47;;;;;;;19.88;4.57;;;20.80;94.20;;;;;;5005842;28;20045;-62
2023/05/25 12:15:20;;;;;;;14.93;4.75;;;20.90;93.90;;;;;;5002940;28;20037;-62
2023/05/25 12:17:46;;;;;;;16.30;4.75;;;21.00;94.00;;;;;;5004288;28;20116;-61
2023/05/25 12:20:14;;;;;;;18.38;5.32;;;21.20;93.90;;;;;;5016998;28;20045;-61
2023/05/25 12:22:40;;;;;;;19.95;4.97;;;21.10;93.10;;;;;;5021423;28;20095;-61
2023/05/25 12:25:07;;;;;;;14.57;4.80;;;21.10;92.70;;;;;;5032831;28;20094;-64
2023/05/25 12:27:33;;;;;;;15.65;4.38;;;21.10;92.50;;;;;;5019676;28;20175;-62
2023/05/25 12:29:59;;;;;;;17.05;5.03;;;21.20;92.60;;;;;;5028168;28;20124;-62
2023/05/25 12:32:25;;;;;;;19.02;4.70;;;21.20;92.30;;;;;;5048317;28;20113;-63
2023/05/25 12:34:59;;;;;;;15.50;4.70;;;21.10;92.10;;;;;;5031460;28;20029;-63
2023/05/25 12:37:25;;;;;;;17.80;5.15;;;20.90;91.70;;;;;;5015284;28;20042;-63
2023/05/25 12:39:51;;;;;;;15.77;4.65;;;20.80;92.00;;;;;;5036864;28;20607;-64
2023/05/25 12:42:16;;;;;;;18.17;5.38;;;20.80;92.20;;;;;;5035888;28;20115;-62